Rindo Maru — JD3883 — position and weather

sailwx.info

Track history (hours):
 
Tides and Currents Weather Stations Pressure Air Temp Water Temp Dewpoint Dewpoint Depression Visibility Wind Speed Wind Dir Waves Ship Positions

Rindo Maru

Last reported at 2017-Oct-20 16:02 UTC. Time now 2017-Oct-20 19:45 UTC.
Position N 34°54' E 139°26'.

Length 105 m; draft 6.4 m.

Type: Tanker. MMSI: 431007017.

Date/timePositionNaut miles runAvg speedWind from/ knotsBaromVisibWave heightAir tempDewpointWater temp
2017-Oct-20 16:02N 34°54' E 139°26'110.4
2017-Oct-20 15:54N 34°55' E 139°27'511.2
2017-Oct-20 15:29N 34°58' E 139°31'612.8
2017-Oct-20 15:00N 35°03' E 139°36'713.9
2017-Oct-20 14:30N 35°07' E 139°42'1211.9
2017-Oct-20 13:30N 35°19' E 139°43'612.3
2017-Oct-20 13:00N 35°25' E 139°44'713.5
2017-Oct-20 12:30N 35°29' E 139°51'612.2
2017-Oct-20 12:00N 35°30' E 139°58'2 0.3
2017-Oct-20 04:24N 35°29' E 140°01'2 5.8
2017-Oct-20 04:00N 35°30' E 139°58'2 4.4
2017-Oct-20 03:30N 35°29' E 139°56'0 0.1
2017-Oct-20 02:54N 35°29' E 139°56'0 0.0
2017-Oct-20 02:24N 35°29' E 139°56'0 0.0
2017-Oct-20 01:54N 35°29' E 139°56'0 0.0
2017-Oct-20 01:30N 35°29' E 139°56'0 0.0
2017-Oct-20 01:00N 35°29' E 139°56'0 0.0
2017-Oct-20 00:30N 35°29' E 139°56'0 0.0
2017-Oct-20 00:00N 35°29' E 139°56'0 0.0
2017-Oct-19 23:30N 35°29' E 139°56'0 0.0
2017-Oct-19 23:00N 35°29' E 139°56'0 0.0
2017-Oct-19 22:18N 35°29' E 139°56'0 0.0
2017-Oct-19 22:00N 35°29' E 139°56'0 0.0
2017-Oct-19 21:30N 35°29' E 139°56'0 0.0
2017-Oct-19 20:57N 35°29' E 139°56'1 1.5
2017-Oct-19 20:28N 35°29' E 139°55'612.3
2017-Oct-19 20:00N 35°30' E 139°48'2 4.5
2017-Oct-19 19:30N 35°31' E 139°46'0 0.0
2017-Oct-19 06:11N 35°31' E 139°46'0 0.0
2017-Oct-19 06:00N 35°31' E 139°46'3 5.1
2017-Oct-19 05:30N 35°30' E 139°44'4 7.6
2017-Oct-19 05:00N 35°26' E 139°44'2 3.5
2017-Oct-19 04:30N 35°25' E 139°46'0 0.0
2017-Oct-19 04:01N 35°25' E 139°46'0 0.0
2017-Oct-19 03:28N 35°25' E 139°46'0 0.0
2017-Oct-19 03:01N 35°25' E 139°46'0 0.1
2017-Oct-19 02:30N 35°25' E 139°46'0 0.1
2017-Oct-19 02:00N 35°25' E 139°46'0 0.1
2017-Oct-19 01:27N 35°25' E 139°46'0 0.0
2017-Oct-19 01:01N 35°25' E 139°46'0 0.0
2017-Oct-19 00:27N 35°25' E 139°46'0 0.0
2017-Oct-19 00:01N 35°25' E 139°46'0 0.0
2017-Oct-18 23:31N 35°25' E 139°46'0 0.0
2017-Oct-18 23:00N 35°25' E 139°46'0 0.0
2017-Oct-18 22:31N 35°25' E 139°46'0 0.1
2017-Oct-18 22:00N 35°25' E 139°46'0 0.0
2017-Oct-18 21:31N 35°25' E 139°46'2 4.8
2017-Oct-18 21:00N 35°22' E 139°44'611.9
2017-Oct-18 20:30N 35°16' E 139°46'612.6
2017-Oct-18 20:00N 35°10' E 139°46'714.4
2017-Oct-18 19:30N 35°03' E 139°44'612.8
2017-Oct-18 19:00N 34°57' E 139°44'610.8
2017-Oct-18 18:28N 34°52' E 139°48'  
2017-Oct-14 11:13N 34°56' E 140°03'314.6
2017-Oct-14 11:00N 34°54' E 140°00'914.7
2017-Oct-14 10:24N 34°51' E 139°50'615.3
2017-Oct-14 09:59N 34°55' E 139°45'714.7
2017-Oct-14 09:30N 35°02' E 139°43'814.8
2017-Oct-14 08:59N 35°10' E 139°46'613.0
2017-Oct-14 08:30N 35°16' E 139°46'612.7
2017-Oct-14 08:00N 35°22' E 139°43'713.7
2017-Oct-14 07:30N 35°27' E 139°48'714.0
2017-Oct-14 07:00N 35°30' E 139°56'4 0.5
2017-Oct-13 21:57N 35°29' E 140°01'2 5.0
2017-Oct-13 21:30N 35°30' E 139°58'2 4.7
2017-Oct-13 20:59N 35°29' E 139°56'0 0.1
2017-Oct-13 20:29N 35°29' E 139°56'0 0.1
2017-Oct-13 19:59N 35°29' E 139°56'0 0.1
2017-Oct-13 19:29N 35°29' E 139°56'0 0.1
2017-Oct-13 18:59N 35°29' E 139°56'0 0.1
2017-Oct-13 18:29N 35°29' E 139°56'0 0.0
2017-Oct-13 17:59N 35°29' E 139°56'0 0.1
2017-Oct-13 17:29N 35°29' E 139°56'0 0.1
2017-Oct-13 16:59N 35°29' E 139°56'0 0.0
2017-Oct-13 16:29N 35°29' E 139°56'0 0.0
2017-Oct-13 15:59N 35°29' E 139°56'0 0.0
2017-Oct-13 15:29N 35°29' E 139°56'0 0.0
2017-Oct-13 14:59N 35°29' E 139°56'0 0.0
2017-Oct-13 14:26N 35°29' E 139°56'0 0.0
2017-Oct-13 13:59N 35°29' E 139°56'0 0.1
2017-Oct-13 13:29N 35°29' E 139°56'0 0.1
2017-Oct-13 12:56N 35°29' E 139°56'0 0.0
2017-Oct-13 12:26N 35°29' E 139°56'0 0.0
2017-Oct-13 11:59N 35°29' E 139°56'0 0.1
2017-Oct-13 11:23N 35°29' E 139°56'0 0.0
2017-Oct-13 10:59N 35°29' E 139°56'0 0.0
2017-Oct-13 10:29N 35°29' E 139°56'0 0.0
2017-Oct-13 09:59N 35°29' E 139°56'0 0.1
2017-Oct-13 09:20N 35°29' E 139°56'0 0.0
2017-Oct-13 08:56N 35°29' E 139°56'0 0.0
2017-Oct-13 08:29N 35°29' E 139°56'0 0.0
2017-Oct-13 07:44N 35°29' E 139°56'0 0.0
2017-Oct-13 07:26N 35°29' E 139°56'0 0.0
2017-Oct-13 06:44N 35°29' E 139°56'0 0.0
2017-Oct-13 06:14N 35°29' E 139°56'0 0.0
2017-Oct-13 05:47N 35°29' E 139°56'0 0.0
2017-Oct-13 05:26N 35°29' E 139°56'1 1.3
2017-Oct-13 04:42N 35°29' E 139°55'313.3
2017-Oct-13 04:29N 35°30' E 139°51'4 7.0
2017-Oct-13 03:52N 35°31' E 139°46'0 0.0
2017-Oct-13 03:19N 35°31' E 139°46'0 0.0
2017-Oct-13 02:58N 35°31' E 139°46'0 0.0
2017-Oct-13 02:20N 35°31' E 139°46'0 0.0
2017-Oct-13 01:59N 35°31' E 139°46'0 0.0
2017-Oct-13 01:29N 35°31' E 139°46'0 0.0
2017-Oct-13 00:59N 35°31' E 139°46'0 0.0
2017-Oct-13 00:28N 35°31' E 139°46'0 0.0
2017-Oct-12 23:59N 35°31' E 139°46'0 0.0
2017-Oct-12 23:29N 35°31' E 139°46'0 0.0
2017-Oct-12 23:01N 35°31' E 139°46'2 5.0
2017-Oct-12 22:30N 35°30' E 139°44'4 7.6
2017-Oct-12 22:00N 35°26' E 139°44'1 2.9
2017-Oct-12 21:30N 35°24' E 139°45'0 0.0
2017-Oct-12 21:00N 35°24' E 139°45'0 0.0
2017-Oct-12 20:30N 35°24' E 139°45'0 0.0
2017-Oct-12 20:00N 35°24' E 139°45'0 0.0
2017-Oct-12 19:24N 35°24' E 139°45'0 0.0
2017-Oct-12 19:00N 35°24' E 139°45'0 0.1
2017-Oct-12 18:30N 35°24' E 139°45'0 0.0
2017-Oct-12 18:00N 35°24' E 139°45'0 0.0
2017-Oct-12 17:30N 35°24' E 139°45'0 0.0
2017-Oct-12 16:57N 35°24' E 139°45'0 0.0
2017-Oct-12 16:30N 35°24' E 139°45'0 0.0
2017-Oct-12 16:00N 35°24' E 139°45'0 0.0
2017-Oct-12 15:30N 35°24' E 139°45'0 0.0
2017-Oct-12 15:00N 35°24' E 139°45'0 0.1
2017-Oct-12 14:30N 35°24' E 139°45'0 0.0
2017-Oct-12 14:00N 35°24' E 139°45'0 0.1
2017-Oct-12 13:30N 35°24' E 139°45'0 0.1
2017-Oct-12 13:00N 35°24' E 139°45'0 0.1
2017-Oct-12 12:30N 35°25' E 139°45'0 0.0
2017-Oct-12 11:54N 35°25' E 139°45'0 0.0
2017-Oct-12 11:27N 35°24' E 139°45'0 0.0
2017-Oct-12 11:00N 35°24' E 139°45'0 0.0
2017-Oct-12 10:30N 35°24' E 139°45'0 0.0
2017-Oct-12 10:00N 35°24' E 139°45'0 0.0
2017-Oct-12 09:30N 35°25' E 139°45'0 0.0
2017-Oct-12 09:00N 35°25' E 139°45'0 0.0
2017-Oct-12 08:30N 35°25' E 139°45'0 0.0
2017-Oct-12 08:00N 35°25' E 139°45'0 0.0
2017-Oct-12 07:30N 35°25' E 139°45'0 0.0
2017-Oct-12 07:00N 35°25' E 139°45'0 0.1
2017-Oct-12 06:30N 35°25' E 139°45'0 0.0
2017-Oct-12 06:00N 35°25' E 139°45'0 0.0
2017-Oct-12 05:30N 35°24' E 139°45'0 0.0
2017-Oct-12 05:00N 35°24' E 139°45'0 0.0
2017-Oct-12 04:30N 35°24' E 139°45'0 0.0
2017-Oct-12 04:00N 35°25' E 139°45'0 0.0
2017-Oct-12 03:30N 35°24' E 139°45'0 0.1
2017-Oct-12 03:00N 35°24' E 139°45'0 0.1
2017-Oct-12 02:30N 35°24' E 139°45'0 0.0
2017-Oct-12 01:57N 35°24' E 139°45'0 0.1
2017-Oct-12 01:30N 35°24' E 139°45'0 0.0
2017-Oct-11 21:45N 35°24' E 139°45'2 7.3
2017-Oct-11 21:30N 35°23' E 139°45'510.6
2017-Oct-11 21:00N 35°17' E 139°46'611.8
2017-Oct-11 20:30N 35°12' E 139°47'714.2
2017-Oct-11 20:00N 35°05' E 139°45'713.7
2017-Oct-11 19:30N 34°58' E 139°44'812.1
2017-Oct-11 18:52N 34°51' E 139°48'  
Track history (hours):
 
Tides and Currents Weather Stations Pressure Air Temp Water Temp Dewpoint Dewpoint Depression Visibility Wind Speed Wind Dir Waves Ship Positions

Rindo Maru

Last reported at 2017-Oct-20 16:02 UTC. Time now 2017-Oct-20 19:45 UTC.
Position N 34°54' E 139°26'.

Length 105 m; draft 6.4 m.

Type: Tanker. MMSI: 431007017.

Date/timePositionNaut miles runAvg speedWind from/ knotsBaromVisibWave heightAir tempDewpointWater temp
2017-Oct-20 16:02N 34°54' E 139°26'110.4
2017-Oct-20 15:54N 34°55' E 139°27'511.2
2017-Oct-20 15:29N 34°58' E 139°31'612.8
2017-Oct-20 15:00N 35°03' E 139°36'713.9
2017-Oct-20 14:30N 35°07' E 139°42'1211.9
2017-Oct-20 13:30N 35°19' E 139°43'612.3
2017-Oct-20 13:00N 35°25' E 139°44'713.5
2017-Oct-20 12:30N 35°29' E 139°51'612.2
2017-Oct-20 12:00N 35°30' E 139°58'2 0.3
2017-Oct-20 04:24N 35°29' E 140°01'2 5.8
2017-Oct-20 04:00N 35°30' E 139°58'2 4.4
2017-Oct-20 03:30N 35°29' E 139°56'0 0.1
2017-Oct-20 02:54N 35°29' E 139°56'0 0.0
2017-Oct-20 02:24N 35°29' E 139°56'0 0.0
2017-Oct-20 01:54N 35°29' E 139°56'0 0.0
2017-Oct-20 01:30N 35°29' E 139°56'0 0.0
2017-Oct-20 01:00N 35°29' E 139°56'0 0.0
2017-Oct-20 00:30N 35°29' E 139°56'0 0.0
2017-Oct-20 00:00N 35°29' E 139°56'0 0.0
2017-Oct-19 23:30N 35°29' E 139°56'0 0.0
2017-Oct-19 23:00N 35°29' E 139°56'0 0.0
2017-Oct-19 22:18N 35°29' E 139°56'0 0.0
2017-Oct-19 22:00N 35°29' E 139°56'0 0.0
2017-Oct-19 21:30N 35°29' E 139°56'0 0.0
2017-Oct-19 20:57N 35°29' E 139°56'1 1.5
2017-Oct-19 20:28N 35°29' E 139°55'612.3
2017-Oct-19 20:00N 35°30' E 139°48'2 4.5
2017-Oct-19 19:30N 35°31' E 139°46'0 0.0
2017-Oct-19 06:11N 35°31' E 139°46'0 0.0
2017-Oct-19 06:00N 35°31' E 139°46'3 5.1
2017-Oct-19 05:30N 35°30' E 139°44'4 7.6
2017-Oct-19 05:00N 35°26' E 139°44'2 3.5
2017-Oct-19 04:30N 35°25' E 139°46'0 0.0
2017-Oct-19 04:01N 35°25' E 139°46'0 0.0
2017-Oct-19 03:28N 35°25' E 139°46'0 0.0
2017-Oct-19 03:01N 35°25' E 139°46'0 0.1
2017-Oct-19 02:30N 35°25' E 139°46'0 0.1
2017-Oct-19 02:00N 35°25' E 139°46'0 0.1
2017-Oct-19 01:27N 35°25' E 139°46'0 0.0
2017-Oct-19 01:01N 35°25' E 139°46'0 0.0
2017-Oct-19 00:27N 35°25' E 139°46'0 0.0
2017-Oct-19 00:01N 35°25' E 139°46'0 0.0
2017-Oct-18 23:31N 35°25' E 139°46'0 0.0
2017-Oct-18 23:00N 35°25' E 139°46'0 0.0
2017-Oct-18 22:31N 35°25' E 139°46'0 0.1
2017-Oct-18 22:00N 35°25' E 139°46'0 0.0
2017-Oct-18 21:31N 35°25' E 139°46'2 4.8
2017-Oct-18 21:00N 35°22' E 139°44'611.9
2017-Oct-18 20:30N 35°16' E 139°46'612.6
2017-Oct-18 20:00N 35°10' E 139°46'714.4
2017-Oct-18 19:30N 35°03' E 139°44'612.8
2017-Oct-18 19:00N 34°57' E 139°44'610.8
2017-Oct-18 18:28N 34°52' E 139°48'  
2017-Oct-14 11:13N 34°56' E 140°03'314.6
2017-Oct-14 11:00N 34°54' E 140°00'914.7
2017-Oct-14 10:24N 34°51' E 139°50'615.3
2017-Oct-14 09:59N 34°55' E 139°45'714.7
2017-Oct-14 09:30N 35°02' E 139°43'814.8
2017-Oct-14 08:59N 35°10' E 139°46'613.0
2017-Oct-14 08:30N 35°16' E 139°46'612.7
2017-Oct-14 08:00N 35°22' E 139°43'713.7
2017-Oct-14 07:30N 35°27' E 139°48'714.0
2017-Oct-14 07:00N 35°30' E 139°56'4 0.5
2017-Oct-13 21:57N 35°29' E 140°01'2 5.0
2017-Oct-13 21:30N 35°30' E 139°58'2 4.7
2017-Oct-13 20:59N 35°29' E 139°56'0 0.1
2017-Oct-13 20:29N 35°29' E 139°56'0 0.1
2017-Oct-13 19:59N 35°29' E 139°56'0 0.1
2017-Oct-13 19:29N 35°29' E 139°56'0 0.1
2017-Oct-13 18:59N 35°29' E 139°56'0 0.1
2017-Oct-13 18:29N 35°29' E 139°56'0 0.0
2017-Oct-13 17:59N 35°29' E 139°56'0 0.1
2017-Oct-13 17:29N 35°29' E 139°56'0 0.1
2017-Oct-13 16:59N 35°29' E 139°56'0 0.0
2017-Oct-13 16:29N 35°29' E 139°56'0 0.0
2017-Oct-13 15:59N 35°29' E 139°56'0 0.0
2017-Oct-13 15:29N 35°29' E 139°56'0 0.0
2017-Oct-13 14:59N 35°29' E 139°56'0 0.0
2017-Oct-13 14:26N 35°29' E 139°56'0 0.0
2017-Oct-13 13:59N 35°29' E 139°56'0 0.1
2017-Oct-13 13:29N 35°29' E 139°56'0 0.1
2017-Oct-13 12:56N 35°29' E 139°56'0 0.0
2017-Oct-13 12:26N 35°29' E 139°56'0 0.0
2017-Oct-13 11:59N 35°29' E 139°56'0 0.1
2017-Oct-13 11:23N 35°29' E 139°56'0 0.0
2017-Oct-13 10:59N 35°29' E 139°56'0 0.0
2017-Oct-13 10:29N 35°29' E 139°56'0 0.0
2017-Oct-13 09:59N 35°29' E 139°56'0 0.1
2017-Oct-13 09:20N 35°29' E 139°56'0 0.0
2017-Oct-13 08:56N 35°29' E 139°56'0 0.0
2017-Oct-13 08:29N 35°29' E 139°56'0 0.0
2017-Oct-13 07:44N 35°29' E 139°56'0 0.0
2017-Oct-13 07:26N 35°29' E 139°56'0 0.0
2017-Oct-13 06:44N 35°29' E 139°56'0 0.0
2017-Oct-13 06:14N 35°29' E 139°56'0 0.0
2017-Oct-13 05:47N 35°29' E 139°56'0 0.0
2017-Oct-13 05:26N 35°29' E 139°56'1 1.3
2017-Oct-13 04:42N 35°29' E 139°55'313.3
2017-Oct-13 04:29N 35°30' E 139°51'4 7.0
2017-Oct-13 03:52N 35°31' E 139°46'0 0.0
2017-Oct-13 03:19N 35°31' E 139°46'0 0.0
2017-Oct-13 02:58N 35°31' E 139°46'0 0.0
2017-Oct-13 02:20N 35°31' E 139°46'0 0.0
2017-Oct-13 01:59N 35°31' E 139°46'0 0.0
2017-Oct-13 01:29N 35°31' E 139°46'0 0.0
2017-Oct-13 00:59N 35°31' E 139°46'0 0.0
2017-Oct-13 00:28N 35°31' E 139°46'0 0.0
2017-Oct-12 23:59N 35°31' E 139°46'0 0.0
2017-Oct-12 23:29N 35°31' E 139°46'0 0.0
2017-Oct-12 23:01N 35°31' E 139°46'2 5.0
2017-Oct-12 22:30N 35°30' E 139°44'4 7.6
2017-Oct-12 22:00N 35°26' E 139°44'1 2.9
2017-Oct-12 21:30N 35°24' E 139°45'0 0.0
2017-Oct-12 21:00N 35°24' E 139°45'0 0.0
2017-Oct-12 20:30N 35°24' E 139°45'0 0.0
2017-Oct-12 20:00N 35°24' E 139°45'0 0.0
2017-Oct-12 19:24N 35°24' E 139°45'0 0.0
2017-Oct-12 19:00N 35°24' E 139°45'0 0.1
2017-Oct-12 18:30N 35°24' E 139°45'0 0.0
2017-Oct-12 18:00N 35°24' E 139°45'0 0.0
2017-Oct-12 17:30N 35°24' E 139°45'0 0.0
2017-Oct-12 16:57N 35°24' E 139°45'0 0.0
2017-Oct-12 16:30N 35°24' E 139°45'0 0.0
2017-Oct-12 16:00N 35°24' E 139°45'0 0.0
2017-Oct-12 15:30N 35°24' E 139°45'0 0.0
2017-Oct-12 15:00N 35°24' E 139°45'0 0.1
2017-Oct-12 14:30N 35°24' E 139°45'0 0.0
2017-Oct-12 14:00N 35°24' E 139°45'0 0.1
2017-Oct-12 13:30N 35°24' E 139°45'0 0.1
2017-Oct-12 13:00N 35°24' E 139°45'0 0.1
2017-Oct-12 12:30N 35°25' E 139°45'0 0.0
2017-Oct-12 11:54N 35°25' E 139°45'0 0.0
2017-Oct-12 11:27N 35°24' E 139°45'0 0.0
2017-Oct-12 11:00N 35°24' E 139°45'0 0.0
2017-Oct-12 10:30N 35°24' E 139°45'0 0.0
2017-Oct-12 10:00N 35°24' E 139°45'0 0.0
2017-Oct-12 09:30N 35°25' E 139°45'0 0.0
2017-Oct-12 09:00N 35°25' E 139°45'0 0.0
2017-Oct-12 08:30N 35°25' E 139°45'0 0.0
2017-Oct-12 08:00N 35°25' E 139°45'0 0.0
2017-Oct-12 07:30N 35°25' E 139°45'0 0.0
2017-Oct-12 07:00N 35°25' E 139°45'0 0.1
2017-Oct-12 06:30N 35°25' E 139°45'0 0.0
2017-Oct-12 06:00N 35°25' E 139°45'0 0.0
2017-Oct-12 05:30N 35°24' E 139°45'0 0.0
2017-Oct-12 05:00N 35°24' E 139°45'0 0.0
2017-Oct-12 04:30N 35°24' E 139°45'0 0.0
2017-Oct-12 04:00N 35°25' E 139°45'0 0.0
2017-Oct-12 03:30N 35°24' E 139°45'0 0.1
2017-Oct-12 03:00N 35°24' E 139°45'0 0.1
2017-Oct-12 02:30N 35°24' E 139°45'0 0.0
2017-Oct-12 01:57N 35°24' E 139°45'0 0.1
2017-Oct-12 01:30N 35°24' E 139°45'0 0.0
2017-Oct-11 21:45N 35°24' E 139°45'2 7.3
2017-Oct-11 21:30N 35°23' E 139°45'510.6
2017-Oct-11 21:00N 35°17' E 139°46'611.8
2017-Oct-11 20:30N 35°12' E 139°47'714.2
2017-Oct-11 20:00N 35°05' E 139°45'713.7
2017-Oct-11 19:30N 34°58' E 139°44'812.1
2017-Oct-11 18:52N 34°51' E 139°48'  

Dump ship's entire track history